Time;durP1;ratioP1;P1;durP2;ratioP2;P2;SDS_P1;SDS_P2;PMS_P1;PMS_P2;Temp;Humidity;BMP_temperature;BMP_pressure;BME280_temperature;BME280_humidity;BME280_pressure;Samples;Min_cycle;Max_cycle;Signal;HPM_P1;HPM_P2
2023/08/02 00:00:33;;;;;;;3.88;1.90;;;14.60;99.90;;;;;;5041225;28;20045;-66
2023/08/02 00:03:05;;;;;;;3.13;1.75;;;14.60;99.90;;;;;;5059265;28;20562;-66
2023/08/02 00:05:37;;;;;;;2.15;1.48;;;14.60;99.90;;;;;;5059329;28;20135;-66
2023/08/02 00:08:09;;;;;;;3.40;1.55;;;14.50;99.90;;;;;;5060623;28;20056;-65
2023/08/02 00:10:40;;;;;;;3.35;1.48;;;14.60;99.90;;;;;;5063742;28;20111;-66
2023/08/02 00:13:13;;;;;;;4.75;1.50;;;14.60;99.90;;;;;;5062537;28;20032;-66
2023/08/02 00:15:45;;;;;;;3.42;1.70;;;14.60;99.90;;;;;;5045849;28;20059;-65
2023/08/02 00:18:17;;;;;;;7.00;1.70;;;14.50;99.90;;;;;;5057868;28;20063;-66
2023/08/02 00:20:50;;;;;;;4.25;2.00;;;14.50;99.90;;;;;;5055601;28;20122;-66
2023/08/02 00:23:17;;;;;;;3.08;1.80;;;14.50;99.90;;;;;;5052062;28;20037;-66
2023/08/02 00:25:49;;;;;;;2.60;1.55;;;14.50;99.90;;;;;;5068053;28;20059;-66
2023/08/02 00:28:16;;;;;;;3.92;1.80;;;14.50;99.90;;;;;;5063334;28;20485;-66
2023/08/02 00:30:48;;;;;;;6.55;1.95;;;14.50;99.90;;;;;;5063620;28;20063;-66
2023/08/02 00:33:19;;;;;;;4.90;1.88;;;14.50;99.90;;;;;;5061483;28;20059;-66
2023/08/02 00:35:53;;;;;;;4.88;2.05;;;14.50;99.90;;;;;;5061472;28;20045;-66
2023/08/02 00:38:24;;;;;;;4.03;2.00;;;14.50;99.90;;;;;;5057446;28;20404;-66
2023/08/02 00:41:02;;;;;;;2.58;1.85;;;14.40;99.90;;;;;;5041735;28;20619;-66
2023/08/02 00:43:43;;;;;;;3.75;1.98;;;14.40;99.90;;;;;;5055505;28;20064;-66
2023/08/02 00:46:17;;;;;;;6.05;2.08;;;14.40;99.90;;;;;;5051000;28;20039;-65
2023/08/02 00:48:49;;;;;;;3.45;2.13;;;14.40;99.90;;;;;;5064092;28;20455;-66
2023/08/02 00:51:22;;;;;;;3.65;2.30;;;14.40;99.90;;;;;;5055532;28;20047;-66
2023/08/02 00:53:54;;;;;;;3.83;1.98;;;14.40;99.90;;;;;;5061587;28;20049;-66
2023/08/02 00:56:26;;;;;;;2.78;2.20;;;14.40;99.90;;;;;;5045300;28;20086;-66
2023/08/02 00:58:58;;;;;;;4.75;2.90;;;14.40;99.90;;;;;;5044823;28;20049;-66
2023/08/02 01:01:30;;;;;;;3.78;2.97;;;14.50;99.90;;;;;;5059995;28;20043;-66
2023/08/02 01:04:01;;;;;;;4.15;2.65;;;14.50;99.90;;;;;;5041747;28;20043;-66
2023/08/02 01:06:43;;;;;;;3.58;2.50;;;14.50;99.90;;;;;;5053855;28;20037;-66
2023/08/02 01:09:27;;;;;;;3.58;2.05;;;14.50;99.90;;;;;;5044891;28;20045;-66
2023/08/02 01:12:13;;;;;;;5.38;2.65;;;14.50;99.90;;;;;;5059064;28;20048;-66
2023/08/02 01:14:49;;;;;;;4.13;2.85;;;14.50;99.90;;;;;;5043824;28;20055;-66
2023/08/02 01:17:24;;;;;;;5.22;2.38;;;14.50;99.90;;;;;;5043589;28;20033;-66
2023/08/02 01:20:06;;;;;;;5.32;3.22;;;14.50;99.90;;;;;;5060503;28;20055;-66
2023/08/02 01:22:34;;;;;;;4.18;2.42;;;14.50;99.90;;;;;;5060913;28;20028;-66
2023/08/02 01:25:06;;;;;;;3.08;2.53;;;14.50;99.90;;;;;;5058358;28;20037;-66
2023/08/02 01:27:59;;;;;;;5.22;2.60;;;14.30;99.90;;;;;;5057660;28;20048;-66
2023/08/02 01:30:36;;;;;;;4.35;2.78;;;14.30;99.90;;;;;;5083574;22;20498;-65
2023/08/02 01:33:08;;;;;;;3.95;2.95;;;14.30;99.90;;;;;;5054288;28;20052;-65
2023/08/02 01:35:42;;;;;;;4.88;2.60;;;14.20;99.90;;;;;;5048300;28;20512;-65
2023/08/02 01:38:15;;;;;;;3.85;2.72;;;14.20;99.90;;;;;;5080569;28;20606;-65
2023/08/02 01:40:47;;;;;;;5.43;3.10;;;14.20;99.90;;;;;;5043117;28;20044;-65
2023/08/02 01:43:18;;;;;;;4.57;2.80;;;14.20;99.90;;;;;;5046171;28;20052;-65
2023/08/02 01:45:47;;;;;;;3.60;2.58;;;14.20;99.90;;;;;;5045921;28;20061;-65
2023/08/02 01:48:14;;;;;;;4.68;2.70;;;14.20;99.90;;;;;;5041886;28;20037;-65
2023/08/02 01:50:45;;;;;;;3.95;2.85;;;14.20;99.90;;;;;;5041047;28;20749;-65
2023/08/02 01:53:17;;;;;;;5.35;3.28;;;14.20;99.90;;;;;;5055054;28;20420;-64
2023/08/02 01:55:49;;;;;;;5.07;2.97;;;14.20;99.90;;;;;;5058642;28;20036;-64
2023/08/02 01:58:16;;;;;;;5.43;2.83;;;14.20;99.90;;;;;;5042253;28;20118;-64
2023/08/02 02:00:47;;;;;;;5.20;3.30;;;14.20;99.90;;;;;;5046677;28;20605;-65
2023/08/02 02:03:19;;;;;;;5.10;3.50;;;14.30;99.90;;;;;;5045363;28;20140;-65
2023/08/02 02:05:54;;;;;;;4.78;3.50;;;14.30;99.90;;;;;;5061575;28;20046;-65
2023/08/02 02:08:26;;;;;;;5.10;3.75;;;14.30;99.90;;;;;;5033215;28;20420;-65
2023/08/02 02:10:58;;;;;;;4.43;3.50;;;14.30;99.90;;;;;;5040106;28;20101;-65
2023/08/02 02:13:32;;;;;;;8.38;4.07;;;14.30;99.90;;;;;;5060492;28;20059;-65
2023/08/02 02:16:04;;;;;;;5.25;3.40;;;14.20;99.90;;;;;;5032384;28;20632;-65
2023/08/02 02:18:35;;;;;;;5.82;3.53;;;14.20;99.90;;;;;;5037812;28;20045;-65
2023/08/02 02:21:02;;;;;;;5.65;3.80;;;14.20;99.90;;;;;;5040264;28;20141;-64
2023/08/02 02:23:34;;;;;;;5.80;3.70;;;14.20;99.90;;;;;;5050424;28;20111;-65
2023/08/02 02:26:01;;;;;;;4.65;3.38;;;14.20;99.90;;;;;;5047663;28;20049;-65
2023/08/02 02:28:33;;;;;;;4.55;3.45;;;14.20;99.90;;;;;;5030149;28;20505;-65
2023/08/02 02:31:05;;;;;;;4.47;3.55;;;14.30;99.90;;;;;;5066770;28;20045;-65
2023/08/02 02:33:36;;;;;;;7.05;3.72;;;14.30;99.90;;;;;;5046181;28;20056;-65
2023/08/02 02:36:09;;;;;;;5.63;3.58;;;14.40;99.90;;;;;;5040022;28;20040;-62
2023/08/02 02:38:41;;;;;;;6.00;3.60;;;14.40;99.90;;;;;;5038095;28;20504;-62
2023/08/02 02:41:13;;;;;;;4.85;3.75;;;14.40;99.90;;;;;;5037980;28;20048;-63
2023/08/02 02:43:39;;;;;;;6.22;4.07;;;14.40;99.90;;;;;;5043856;28;20499;-62
2023/08/02 02:46:11;;;;;;;5.35;3.67;;;14.30;99.90;;;;;;5068004;28;20047;-63
2023/08/02 02:48:44;;;;;;;7.10;4.10;;;14.30;99.90;;;;;;5045983;28;20041;-62
2023/08/02 02:51:11;;;;;;;5.82;4.03;;;14.30;99.90;;;;;;5064925;28;20060;-62
2023/08/02 02:53:42;;;;;;;8.30;4.38;;;14.30;99.90;;;;;;5049824;28;20063;-62
2023/08/02 02:56:14;;;;;;;5.97;4.13;;;14.20;99.90;;;;;;5049466;28;20048;-63
2023/08/02 02:58:46;;;;;;;6.57;4.00;;;14.20;99.90;;;;;;5043045;28;20041;-62
2023/08/02 03:01:18;;;;;;;6.93;3.97;;;14.20;99.90;;;;;;5054211;28;20041;-62
2023/08/02 03:03:50;;;;;;;5.13;3.92;;;14.20;99.90;;;;;;5059121;28;20044;-63
2023/08/02 03:06:22;;;;;;;6.20;4.13;;;14.20;99.90;;;;;;5062946;28;20047;-63
2023/08/02 03:08:54;;;;;;;6.13;3.85;;;14.20;99.90;;;;;;5062024;28;20051;-62
2023/08/02 03:11:21;;;;;;;6.72;3.90;;;14.20;99.90;;;;;;5060629;28;20040;-63
2023/08/02 03:13:52;;;;;;;5.85;4.35;;;14.20;99.90;;;;;;5045118;28;20509;-62
2023/08/02 03:16:24;;;;;;;6.63;3.72;;;14.20;99.90;;;;;;5064386;28;20424;-63
2023/08/02 03:18:51;;;;;;;6.22;4.05;;;14.10;99.90;;;;;;5045287;28;20048;-63
2023/08/02 03:21:23;;;;;;;10.02;4.55;;;14.10;99.90;;;;;;5043262;28;20068;-63
2023/08/02 03:23:55;;;;;;;6.75;4.20;;;14.10;99.90;;;;;;5038157;28;20051;-63
2023/08/02 03:26:21;;;;;;;6.57;4.32;;;14.10;99.90;;;;;;5040493;28;20044;-63
2023/08/02 03:28:53;;;;;;;8.40;3.75;;;14.10;99.90;;;;;;5058937;28;20072;-61
2023/08/02 03:31:25;;;;;;;8.45;4.57;;;14.10;99.90;;;;;;5043680;28;20500;-63
2023/08/02 03:33:57;;;;;;;5.80;3.95;;;14.10;99.90;;;;;;5063705;28;20045;-63
2023/08/02 03:36:29;;;;;;;5.72;3.95;;;14.10;99.90;;;;;;5063311;28;20544;-63
2023/08/02 03:39:00;;;;;;;8.73;4.05;;;14.10;99.90;;;;;;5043715;28;20044;-63
2023/08/02 03:41:32;;;;;;;6.68;4.55;;;14.00;99.90;;;;;;5035366;28;20063;-63
2023/08/02 03:44:04;;;;;;;6.05;4.40;;;14.00;99.90;;;;;;5044771;28;20048;-62
2023/08/02 03:46:36;;;;;;;8.73;4.10;;;14.00;99.90;;;;;;5037949;28;20079;-63
2023/08/02 03:49:08;;;;;;;6.45;4.00;;;14.00;99.90;;;;;;5040380;28;20056;-62
2023/08/02 03:51:35;;;;;;;5.65;4.20;;;14.00;99.90;;;;;;5056315;28;20036;-62
2023/08/02 03:54:08;;;;;;;5.88;4.50;;;14.00;99.90;;;;;;5047130;28;20106;-62
2023/08/02 03:56:39;;;;;;;5.80;4.20;;;14.00;99.90;;;;;;5065033;28;20429;-63
2023/08/02 03:59:11;;;;;;;6.60;4.55;;;13.90;99.90;;;;;;5062897;28;20069;-63
2023/08/02 04:01:43;;;;;;;6.75;4.75;;;13.90;99.90;;;;;;5062962;28;20048;-62
2023/08/02 04:04:15;;;;;;;8.38;5.28;;;13.90;99.90;;;;;;5060406;28;20063;-62
2023/08/02 04:06:47;;;;;;;7.60;5.03;;;13.90;99.90;;;;;;5032161;28;20147;-62
2023/08/02 04:09:18;;;;;;;9.35;5.20;;;13.90;99.90;;;;;;5051773;28;20131;-63
2023/08/02 04:11:50;;;;;;;7.60;4.93;;;13.80;99.90;;;;;;5056479;28;20586;-62
2023/08/02 04:14:17;;;;;;;7.07;4.70;;;13.80;99.90;;;;;;5058586;28;20056;-62
2023/08/02 04:16:44;;;;;;;5.80;4.50;;;13.80;99.90;;;;;;5063276;28;20068;-62
2023/08/02 04:19:16;;;;;;;7.60;5.00;;;13.80;99.90;;;;;;5063295;28;20047;-63
2023/08/02 04:21:48;;;;;;;6.78;4.15;;;13.80;99.90;;;;;;5060513;28;20121;-62
2023/08/02 04:24:15;;;;;;;5.88;4.35;;;13.90;99.90;;;;;;5039388;28;20037;-62
2023/08/02 04:26:46;;;;;;;8.80;5.05;;;13.80;99.90;;;;;;5057934;28;20040;-62
2023/08/02 04:29:19;;;;;;;9.90;4.93;;;13.90;99.90;;;;;;5065421;28;20038;-62
2023/08/02 04:31:46;;;;;;;6.30;4.35;;;13.90;99.90;;;;;;5058696;28;20556;-63
2023/08/02 04:34:18;;;;;;;4.97;3.92;;;13.90;99.90;;;;;;5039840;28;20044;-62
2023/08/02 04:36:50;;;;;;;6.05;4.13;;;13.90;99.90;;;;;;5033515;28;20120;-63
2023/08/02 04:39:22;;;;;;;6.10;4.20;;;14.00;99.90;;;;;;5060007;28;20032;-62
2023/08/02 04:41:54;;;;;;;6.30;4.28;;;14.00;99.90;;;;;;5061557;28;20037;-63
2023/08/02 04:44:26;;;;;;;6.03;4.15;;;14.10;99.90;;;;;;5062358;28;20497;-63
2023/08/02 04:46:58;;;;;;;7.32;4.43;;;14.20;99.90;;;;;;5041510;28;20048;-62
2023/08/02 04:49:30;;;;;;;4.93;4.10;;;14.30;99.90;;;;;;5061251;28;20039;-62
2023/08/02 04:52:02;;;;;;;6.10;5.18;;;14.30;99.90;;;;;;5055155;28;20048;-63
2023/08/02 04:54:34;;;;;;;7.13;4.03;;;14.40;99.90;;;;;;5054540;28;20091;-65
2023/08/02 04:57:06;;;;;;;7.43;4.72;;;14.30;99.90;;;;;;5038983;28;20036;-62
2023/08/02 04:59:38;;;;;;;8.43;4.60;;;14.30;99.90;;;;;;5058756;28;20036;-62
2023/08/02 05:02:10;;;;;;;6.10;4.63;;;14.30;99.90;;;;;;5060785;28;20052;-62
2023/08/02 05:04:36;;;;;;;9.13;4.32;;;14.30;99.90;;;;;;5063605;28;20109;-63
2023/08/02 05:07:08;;;;;;;4.93;3.88;;;14.30;99.90;;;;;;5062487;28;20037;-62
2023/08/02 05:09:43;;;;;;;5.20;4.05;;;14.40;99.90;;;;;;5059494;28;20106;-63
2023/08/02 05:12:15;;;;;;;6.28;4.40;;;14.50;99.90;;;;;;5055743;28;20528;-63
2023/08/02 05:14:47;;;;;;;5.43;4.15;;;14.50;99.90;;;;;;5055556;28;20060;-62
2023/08/02 05:17:18;;;;;;;6.50;4.30;;;14.50;99.90;;;;;;5073012;28;20037;-62
2023/08/02 05:19:50;;;;;;;6.28;4.60;;;14.50;99.90;;;;;;5046110;28;20064;-63
2023/08/02 05:22:22;;;;;;;6.28;3.85;;;14.60;99.90;;;;;;5045033;28;20051;-63
2023/08/02 05:24:54;;;;;;;7.05;3.90;;;14.60;99.90;;;;;;5065594;28;20047;-63
2023/08/02 05:27:26;;;;;;;5.65;3.78;;;14.60;99.90;;;;;;5066713;28;20044;-63
2023/08/02 05:29:53;;;;;;;5.53;3.63;;;14.60;99.90;;;;;;5045087;28;20068;-63
2023/08/02 05:32:19;;;;;;;5.88;3.40;;;14.60;99.90;;;;;;5062636;28;20119;-62
2023/08/02 05:34:51;;;;;;;5.25;3.67;;;14.60;99.90;;;;;;5028760;28;20428;-63
2023/08/02 05:37:18;;;;;;;6.07;3.85;;;14.70;99.90;;;;;;5058966;28;20033;-62
2023/08/02 05:39:50;;;;;;;5.80;3.67;;;14.70;99.90;;;;;;5040342;28;20040;-62
2023/08/02 05:42:17;;;;;;;4.40;3.35;;;14.70;99.90;;;;;;5065221;28;20044;-63
2023/08/02 05:44:44;;;;;;;4.80;3.20;;;14.70;99.90;;;;;;5062520;28;20094;-62
2023/08/02 05:47:11;;;;;;;4.82;3.30;;;14.80;99.90;;;;;;5045449;28;20060;-63
2023/08/02 05:49:43;;;;;;;3.58;2.97;;;14.80;99.90;;;;;;5048804;28;20057;-63
2023/08/02 05:52:15;;;;;;;4.72;3.53;;;14.80;99.90;;;;;;5046431;28;20055;-63
2023/08/02 05:54:47;;;;;;;4.57;3.25;;;14.90;99.90;;;;;;5030948;28;20400;-63
2023/08/02 05:57:14;;;;;;;4.65;4.07;;;14.90;99.90;;;;;;5060621;28;20041;-62
2023/08/02 05:59:47;;;;;;;4.57;3.40;;;14.90;99.90;;;;;;5058407;28;20040;-63
2023/08/02 06:02:19;;;;;;;4.45;3.58;;;14.90;99.90;;;;;;5039592;28;20041;-62
2023/08/02 06:04:51;;;;;;;5.10;3.45;;;14.90;99.90;;;;;;5070876;28;20452;-63
2023/08/02 06:07:23;;;;;;;3.88;3.17;;;15.00;99.90;;;;;;5066202;28;20047;-63
2023/08/02 06:09:56;;;;;;;7.20;3.45;;;15.00;99.90;;;;;;5064289;28;20540;-63
2023/08/02 06:12:23;;;;;;;6.88;4.15;;;15.00;99.90;;;;;;5066493;28;20525;-63
2023/08/02 06:14:55;;;;;;;4.72;3.45;;;15.00;99.90;;;;;;5050988;28;20041;-64
2023/08/02 06:17:23;;;;;;;4.13;3.03;;;15.00;99.90;;;;;;5045171;28;20041;-63
2023/08/02 06:19:49;;;;;;;4.55;3.00;;;15.00;99.90;;;;;;5043761;28;20045;-63
2023/08/02 06:22:22;;;;;;;4.97;3.08;;;15.10;99.90;;;;;;5024064;28;20053;-63
2023/08/02 06:24:54;;;;;;;5.00;2.92;;;15.10;99.90;;;;;;5058593;28;20124;-63
2023/08/02 06:27:26;;;;;;;3.72;2.80;;;15.10;99.90;;;;;;5050933;28;20054;-63
2023/08/02 06:29:58;;;;;;;5.82;3.10;;;15.10;99.90;;;;;;5071941;28;20044;-63
2023/08/02 06:32:29;;;;;;;4.63;2.90;;;15.00;99.90;;;;;;5062846;28;20041;-63
2023/08/02 06:34:56;;;;;;;3.20;2.85;;;15.00;99.90;;;;;;5068794;28;20068;-63
2023/08/02 06:37:23;;;;;;;4.72;2.90;;;15.00;99.90;;;;;;5023213;28;20125;-63
2023/08/02 06:39:55;;;;;;;3.67;2.83;;;15.10;99.90;;;;;;5061832;28;20049;-63
2023/08/02 06:42:22;;;;;;;4.18;3.13;;;15.10;99.90;;;;;;5058885;28;20106;-63
2023/08/02 06:44:49;;;;;;;4.32;3.10;;;15.10;99.90;;;;;;5040817;28;20428;-63
2023/08/02 06:47:21;;;;;;;4.85;3.17;;;15.10;99.90;;;;;;5024290;28;20058;-63
2023/08/02 06:49:52;;;;;;;5.60;3.50;;;15.10;99.90;;;;;;5042259;28;20110;-63
2023/08/02 06:52:24;;;;;;;5.30;3.10;;;15.10;99.90;;;;;;5069182;28;20029;-63
2023/08/02 06:54:56;;;;;;;5.07;2.83;;;15.10;99.90;;;;;;5065209;28;20563;-64
2023/08/02 06:57:31;;;;;;;4.32;3.20;;;15.00;99.90;;;;;;5065155;28;20040;-64
2023/08/02 07:00:03;;;;;;;4.57;3.00;;;15.00;99.90;;;;;;5068401;28;20036;-63
2023/08/02 07:02:30;;;;;;;7.32;2.90;;;15.00;99.90;;;;;;5064258;28;20037;-63
2023/08/02 07:05:02;;;;;;;5.07;3.40;;;15.10;99.90;;;;;;5039932;28;20057;-64
2023/08/02 07:07:34;;;;;;;5.93;2.83;;;15.10;99.90;;;;;;5040368;28;20057;-64
2023/08/02 07:10:01;;;;;;;4.72;2.67;;;15.10;99.90;;;;;;5026111;28;20041;-63
2023/08/02 07:12:28;;;;;;;4.57;2.75;;;15.00;99.90;;;;;;5057985;28;20033;-64
2023/08/02 07:15:00;;;;;;;4.70;3.00;;;15.10;99.90;;;;;;5049567;28;20408;-64
2023/08/02 07:17:32;;;;;;;5.05;3.65;;;15.10;99.90;;;;;;5049697;28;20067;-63
2023/08/02 07:20:04;;;;;;;4.40;2.80;;;15.00;99.90;;;;;;5047042;28;20515;-64
2023/08/02 07:22:31;;;;;;;3.90;2.95;;;15.00;99.90;;;;;;5066629;28;20612;-64
2023/08/02 07:25:04;;;;;;;4.22;3.13;;;15.00;99.90;;;;;;5044554;28;20037;-63
2023/08/02 07:27:31;;;;;;;4.93;2.95;;;15.00;99.90;;;;;;5040616;28;20040;-63
2023/08/02 07:30:03;;;;;;;4.60;3.25;;;15.00;99.90;;;;;;5038209;28;20037;-64
2023/08/02 07:32:34;;;;;;;6.10;3.03;;;15.00;99.90;;;;;;5040129;28;20048;-64
2023/08/02 07:35:07;;;;;;;3.97;2.85;;;15.00;99.90;;;;;;5025719;28;20036;-64
2023/08/02 07:37:34;;;;;;;4.53;3.40;;;15.10;99.90;;;;;;5067382;22;20297;-67
2023/08/02 07:40:06;;;;;;;4.32;3.17;;;15.10;99.90;;;;;;5051853;28;20386;-66
2023/08/02 07:42:38;;;;;;;6.38;3.70;;;15.30;99.90;;;;;;5061369;28;20123;-67
2023/08/02 07:45:11;;;;;;;4.25;3.40;;;15.30;99.90;;;;;;5060756;28;20409;-67
2023/08/02 07:47:38;;;;;;;3.83;3.05;;;15.40;99.90;;;;;;5068356;28;20135;-67
2023/08/02 07:50:11;;;;;;;3.75;3.10;;;15.40;99.90;;;;;;5064410;28;20051;-70
2023/08/02 07:52:43;;;;;;;4.28;2.78;;;15.40;99.90;;;;;;5057596;28;20503;-67
2023/08/02 07:55:15;;;;;;;3.70;2.97;;;15.30;99.90;;;;;;5041953;28;20045;-67
2023/08/02 07:57:47;;;;;;;5.68;3.30;;;15.30;99.90;;;;;;5061433;28;20425;-67
2023/08/02 08:00:19;;;;;;;4.97;3.33;;;15.40;99.90;;;;;;5060396;28;20139;-67
2023/08/02 08:02:51;;;;;;;4.97;3.30;;;15.40;99.90;;;;;;5069305;28;20043;-67
2023/08/02 08:05:18;;;;;;;4.55;3.22;;;15.50;99.90;;;;;;5052269;28;20048;-67
2023/08/02 08:07:51;;;;;;;4.28;2.90;;;15.50;99.90;;;;;;5027446;28;20184;-67
2023/08/02 08:10:17;;;;;;;5.72;3.35;;;15.50;99.90;;;;;;5047333;28;20041;-67
2023/08/02 08:12:49;;;;;;;3.95;2.97;;;15.60;99.90;;;;;;5048523;28;20040;-67
2023/08/02 08:15:16;;;;;;;5.25;3.22;;;15.60;99.90;;;;;;5042702;28;20051;-67
2023/08/02 08:17:48;;;;;;;4.70;3.13;;;15.70;99.90;;;;;;5053373;28;20045;-67
2023/08/02 08:20:17;;;;;;;4.03;3.13;;;15.70;99.90;;;;;;5057016;28;20705;-67
2023/08/02 08:22:49;;;;;;;4.72;3.35;;;15.70;99.90;;;;;;5039663;28;20045;-67
2023/08/02 08:25:22;;;;;;;4.40;3.30;;;15.80;99.90;;;;;;5028520;28;20051;-67
2023/08/02 08:27:54;;;;;;;3.67;2.90;;;15.70;99.90;;;;;;5061014;28;20416;-67
2023/08/02 08:30:26;;;;;;;5.00;3.15;;;15.70;99.90;;;;;;5057355;28;20049;-68
2023/08/02 08:32:57;;;;;;;3.30;2.80;;;15.70;99.90;;;;;;5064788;28;20032;-67
2023/08/02 08:35:32;;;;;;;5.75;3.15;;;15.80;99.90;;;;;;5034540;28;20547;-67
2023/08/02 08:38:04;;;;;;;4.32;2.90;;;15.90;99.90;;;;;;5040867;28;20640;-67
2023/08/02 08:40:36;;;;;;;3.20;2.80;;;15.90;99.90;;;;;;5042422;28;20028;-67
2023/08/02 08:43:08;;;;;;;4.68;2.70;;;15.90;99.90;;;;;;5038922;28;20045;-67
2023/08/02 08:45:41;;;;;;;3.70;2.53;;;15.90;99.90;;;;;;5063409;28;20047;-69
2023/08/02 08:48:13;;;;;;;4.57;2.42;;;15.90;99.90;;;;;;5045493;28;20037;-68
2023/08/02 08:50:46;;;;;;;4.13;2.70;;;15.90;99.90;;;;;;5061130;28;20109;-66
2023/08/02 08:53:28;;;;;;;3.30;2.58;;;15.90;99.90;;;;;;5041508;28;20056;-66
2023/08/02 08:56:01;;;;;;;3.42;2.55;;;15.90;99.90;;;;;;5038752;28;20041;-66
2023/08/02 08:58:34;;;;;;;5.45;2.47;;;15.80;99.90;;;;;;5041685;28;20098;-66
2023/08/02 09:01:06;;;;;;;3.72;2.75;;;15.70;99.90;;;;;;5053836;28;20425;-66
2023/08/02 09:03:33;;;;;;;4.65;2.58;;;15.70;99.90;;;;;;5057023;28;20522;-66
2023/08/02 09:06:05;;;;;;;3.75;2.60;;;15.70;99.90;;;;;;5037649;28;20063;-67
2023/08/02 09:08:42;;;;;;;3.33;2.42;;;15.70;99.90;;;;;;5057939;28;20043;-66
2023/08/02 09:11:17;;;;;;;4.85;3.03;;;15.70;99.90;;;;;;5061340;28;20045;-66
2023/08/02 09:14:11;;;;;;;3.30;2.70;;;15.60;99.90;;;;;;5031448;28;20045;-66
2023/08/02 09:17:00;;;;;;;5.20;2.45;;;15.60;99.90;;;;;;5055948;28;20046;-67
2023/08/02 09:19:34;;;;;;;4.70;3.10;;;15.60;99.90;;;;;;5057388;28;20045;-67
2023/08/02 09:22:13;;;;;;;4.05;2.85;;;15.60;99.90;;;;;;5046833;28;20428;-66
2023/08/02 09:24:45;;;;;;;4.28;2.80;;;15.60;99.90;;;;;;5063964;28;20045;-65
2023/08/02 09:27:20;;;;;;;3.63;2.85;;;15.60;99.90;;;;;;5060169;28;20045;-65
2023/08/02 09:29:54;;;;;;;5.18;3.08;;;15.50;99.90;;;;;;5041971;28;20128;-65
2023/08/02 09:32:22;;;;;;;4.82;3.20;;;15.50;99.90;;;;;;5059523;28;20039;-65
2023/08/02 09:34:59;;;;;;;4.55;2.95;;;15.60;99.90;;;;;;5064965;28;20051;-67
2023/08/02 09:37:36;;;;;;;4.00;2.88;;;15.60;99.90;;;;;;5046626;28;20517;-66
2023/08/02 09:40:04;;;;;;;4.20;2.72;;;15.70;99.90;;;;;;5055347;28;20045;-66
2023/08/02 09:42:36;;;;;;;3.40;2.47;;;15.70;99.90;;;;;;5064953;28;20033;-65
2023/08/02 09:45:04;;;;;;;4.65;2.33;;;15.60;99.90;;;;;;5060290;28;20041;-65
2023/08/02 09:47:35;;;;;;;3.57;2.70;;;15.60;99.90;;;;;;5038230;28;20045;-66
2023/08/02 09:50:11;;;;;;;3.67;2.28;;;15.70;99.90;;;;;;5057590;28;20120;-66
2023/08/02 09:52:42;;;;;;;5.05;3.40;;;15.70;99.90;;;;;;5057813;28;20044;-65
2023/08/02 09:55:14;;;;;;;4.40;2.53;;;15.70;99.90;;;;;;5056312;28;20604;-66
2023/08/02 09:57:48;;;;;;;5.10;3.03;;;15.90;99.90;;;;;;5061248;28;20055;-66
2023/08/02 10:00:17;;;;;;;5.10;2.90;;;15.90;99.90;;;;;;5039168;28;20381;-66
2023/08/02 10:02:49;;;;;;;4.53;2.97;;;16.10;99.90;;;;;;5048654;28;20064;-66
2023/08/02 10:05:21;;;;;;;3.95;2.88;;;16.20;99.90;;;;;;5066376;28;20045;-66
2023/08/02 10:07:54;;;;;;;4.15;3.03;;;16.40;99.90;;;;;;5055119;28;20132;-67
2023/08/02 10:10:31;;;;;;;3.33;2.80;;;16.50;99.90;;;;;;5061919;28;20029;-66
2023/08/02 10:13:17;;;;;;;3.40;2.45;;;16.60;99.90;;;;;;5059422;28;20071;-66
2023/08/02 10:15:51;;;;;;;3.70;2.65;;;16.60;99.90;;;;;;5045884;28;20071;-66
2023/08/02 10:18:24;;;;;;;7.78;3.55;;;16.70;99.90;;;;;;5028445;28;20389;-66
2023/08/02 10:20:59;;;;;;;3.80;2.85;;;16.90;99.90;;;;;;5065064;28;20047;-66
2023/08/02 10:23:27;;;;;;;3.63;2.85;;;17.20;99.90;;;;;;5034184;28;20079;-66
2023/08/02 10:25:59;;;;;;;4.28;2.90;;;17.50;99.90;;;;;;5043219;28;20037;-65
2023/08/02 10:28:32;;;;;;;3.10;2.53;;;17.50;99.90;;;;;;5037938;28;20047;-66
2023/08/02 10:31:07;;;;;;;5.13;2.38;;;17.60;99.90;;;;;;5060595;28;20041;-65
2023/08/02 10:33:34;;;;;;;3.08;2.65;;;17.80;99.90;;;;;;5061930;28;20037;-65
2023/08/02 10:36:02;;;;;;;4.30;2.60;;;17.90;99.90;;;;;;5044407;28;20036;-66
2023/08/02 10:38:37;;;;;;;3.38;2.53;;;17.90;99.90;;;;;;5061349;28;20562;-66
2023/08/02 10:41:12;;;;;;;3.42;2.45;;;18.10;99.90;;;;;;5051760;28;20045;-66
2023/08/02 10:43:53;;;;;;;3.38;2.13;;;18.20;99.90;;;;;;5062023;28;20115;-65
2023/08/02 10:46:28;;;;;;;4.05;3.08;;;18.40;99.90;;;;;;5043096;28;20058;-66
2023/08/02 10:49:32;;;;;;;4.07;2.90;;;18.50;99.90;;;;;;5042893;28;20036;-66
2023/08/02 10:52:39;;;;;;;4.05;2.72;;;18.60;99.90;;;;;;5055726;28;20540;-66
2023/08/02 10:55:18;;;;;;;3.65;2.53;;;18.70;99.90;;;;;;5046563;28;20041;-68
2023/08/02 10:57:54;;;;;;;4.97;3.00;;;19.00;99.90;;;;;;5065320;28;20070;-68
2023/08/02 11:00:26;;;;;;;4.32;2.70;;;19.40;99.90;;;;;;5062885;28;20404;-67
2023/08/02 11:02:59;;;;;;;3.63;2.78;;;19.70;99.90;;;;;;5058356;28;20037;-65
2023/08/02 11:05:46;;;;;;;;;;;19.90;99.90;;;;;;5070978;28;20051;-66
2023/08/02 11:08:13;;;;;;;2.80;2.33;;;20.00;99.90;;;;;;5071171;28;19970;-66
2023/08/02 11:10:47;;;;;;;4.45;2.42;;;20.10;99.90;;;;;;5050119;28;20041;-66
2023/08/02 11:13:20;;;;;;;4.20;2.97;;;20.10;99.90;;;;;;5064334;28;20559;-64
2023/08/02 11:16:03;;;;;;;3.70;2.83;;;20.10;99.90;;;;;;5064733;28;20041;-66
2023/08/02 11:18:35;;;;;;;3.72;2.42;;;20.30;99.90;;;;;;5031410;28;20040;-65
2023/08/02 11:21:12;;;;;;;3.53;2.22;;;20.60;99.90;;;;;;5048685;28;20029;-65
2023/08/02 11:23:49;;;;;;;3.25;2.47;;;20.70;99.90;;;;;;5068768;28;20044;-65
2023/08/02 11:26:18;;;;;;;3.72;2.33;;;20.90;99.90;;;;;;5065404;28;20120;-66
2023/08/02 11:28:52;;;;;;;3.00;2.38;;;21.10;99.90;;;;;;5066240;28;20047;-65
2023/08/02 11:31:25;;;;;;;2.90;2.40;;;21.20;99.90;;;;;;5063391;28;20041;-64
2023/08/02 11:33:57;;;;;;;4.03;2.22;;;21.40;99.90;;;;;;5047599;28;20052;-66
2023/08/02 11:36:33;;;;;;;2.63;2.40;;;21.40;99.90;;;;;;5056875;28;20547;-65
2023/08/02 11:39:05;;;;;;;3.72;2.40;;;21.50;99.90;;;;;;5022506;28;20425;-64
2023/08/02 11:41:37;;;;;;;3.47;2.10;;;21.60;99.90;;;;;;5061919;28;20045;-65
2023/08/02 11:44:16;;;;;;;2.83;2.28;;;21.60;99.90;;;;;;5066052;28;20037;-65
2023/08/02 11:46:55;;;;;;;2.63;2.10;;;21.70;99.90;;;;;;5067707;28;20037;-65
2023/08/02 11:49:27;;;;;;;3.67;2.22;;;21.90;99.90;;;;;;5064518;28;20044;-66
2023/08/02 11:52:02;;;;;;;4.32;2.50;;;22.10;99.90;;;;;;5063989;28;20039;-65
2023/08/02 11:54:29;;;;;;;3.25;2.53;;;22.30;99.90;;;;;;5062446;28;20037;-65
2023/08/02 11:57:01;;;;;;;2.30;1.83;;;22.40;99.90;;;;;;5059131;28;20048;-65
2023/08/02 11:59:33;;;;;;;3.13;2.50;;;22.50;99.90;;;;;;5056664;28;20052;-65
2023/08/02 12:02:24;;;;;;;3.72;2.10;;;22.60;99.90;;;;;;5053562;28;20527;-65
2023/08/02 12:04:57;;;;;;;3.58;2.45;;;22.80;99.90;;;;;;5061833;28;20037;-65
2023/08/02 12:07:30;;;;;;;3.33;2.30;;;23.00;99.90;;;;;;5063128;28;20032;-65
2023/08/02 12:10:04;;;;;;;2.60;2.10;;;23.10;99.90;;;;;;5061143;28;20055;-65
2023/08/02 12:12:33;;;;;;;3.55;2.13;;;23.20;99.90;;;;;;5064815;28;20032;-64
2023/08/02 12:15:12;;;;;;;3.38;2.38;;;23.30;99.90;;;;;;5066713;28;20074;-65
2023/08/02 12:17:44;;;;;;;4.22;2.53;;;23.20;99.90;;;;;;5049922;28;20045;-64
2023/08/02 12:20:29;;;;;;;3.35;2.28;;;23.30;99.90;;;;;;5027014;28;20048;-65
2023/08/02 12:23:01;;;;;;;3.80;2.15;;;23.40;99.90;;;;;;5057831;28;20535;-65
2023/08/02 12:25:44;;;;;;;3.40;2.30;;;23.60;99.90;;;;;;5058034;28;20580;-65
2023/08/02 12:28:12;;;;;;;2.90;2.30;;;23.70;99.90;;;;;;5064618;28;20120;-65
2023/08/02 12:31:00;;;;;;;3.88;2.60;;;23.80;99.90;;;;;;5065475;28;20036;-64
2023/08/02 12:33:32;;;;;;;3.33;2.50;;;23.90;99.90;;;;;;5045925;28;20046;-65
2023/08/02 12:36:05;;;;;;;3.25;2.38;;;24.10;99.90;;;;;;5062795;28;20550;-65
2023/08/02 12:38:37;;;;;;;;;;;24.20;99.90;;;;;;5045735;28;20051;-65
2023/08/02 12:41:09;;;;;;;4.97;2.30;;;24.40;99.90;;;;;;5063762;28;20384;-65
2023/08/02 12:43:38;;;;;;;2.50;2.30;;;24.60;99.90;;;;;;5059510;28;20120;-65
2023/08/02 12:46:10;;;;;;;3.47;2.67;;;24.60;99.90;;;;;;5059001;28;20041;-65
2023/08/02 12:48:41;;;;;;;6.15;2.78;;;24.70;99.90;;;;;;5041561;28;20040;-65
2023/08/02 12:51:13;;;;;;;4.25;2.70;;;24.80;99.90;;;;;;5047730;28;20041;-65
2023/08/02 12:53:45;;;;;;;5.88;2.50;;;24.80;99.90;;;;;;5064911;28;20434;-65
2023/08/02 12:56:17;;;;;;;2.80;2.50;;;24.90;99.90;;;;;;5062018;28;20044;-65
2023/08/02 12:58:49;;;;;;;3.60;2.58;;;25.00;99.90;;;;;;5059808;28;20095;-65
2023/08/02 13:01:21;;;;;;;4.75;3.63;;;25.20;99.90;;;;;;5048891;28;20452;-65
2023/08/02 13:03:53;;;;;;;4.20;2.97;;;25.20;99.90;;;;;;5066711;28;20427;-65
2023/08/02 13:06:25;;;;;;;3.40;2.35;;;25.20;99.90;;;;;;5060936;28;20149;-65
2023/08/02 13:08:56;;;;;;;4.25;2.92;;;25.40;99.90;;;;;;5040138;28;20502;-65
2023/08/02 13:11:23;;;;;;;3.50;2.35;;;25.50;99.90;;;;;;5044403;28;20497;-65
2023/08/02 13:13:55;;;;;;;3.87;2.37;;;25.40;99.90;;;;;;5056077;28;20051;-65